Time;durP1;ratioP1;P1;durP2;ratioP2;P2;SDS_P1;SDS_P2;PMS_P1;PMS_P2;Temp;Humidity;BMP_temperature;BMP_pressure;BME280_temperature;BME280_humidity;BME280_pressure;Samples;Min_cycle;Max_cycle;Signal;HPM_P1;HPM_P2
2023/07/06 00:00:25;;;;;;;4.8;3.2;;;;;;;;;;;;;
2023/07/06 00:02:52;;;;;;;4.3;3.2;;;;;;;;;;;;;
2023/07/06 00:05:17;;;;;;;6.8;3.6;;;;;;;;;;;;;
2023/07/06 00:07:45;;;;;;;4.3;2.9;;;;;;;;;;;;;
2023/07/06 00:10:10;;;;;;;4.5;3;;;;;;;;;;;;;
2023/07/06 00:12:37;;;;;;;4.1;3.3;;;;;;;;;;;;;
2023/07/06 00:15:03;;;;;;;6;3.4;;;;;;;;;;;;;
2023/07/06 00:17:38;;;;;;;4.4;3.1;;;;;;;;;;;;;
2023/07/06 00:20:10;;;;;;;5.9;3.4;;;;;;;;;;;;;
2023/07/06 00:22:29;;;;;;;6.2;3.6;;;;;;;;;;;;;
2023/07/06 00:24:54;;;;;;;4.7;3.4;;;;;;;;;;;;;
2023/07/06 00:27:20;;;;;;;4.3;3.4;;;;;;;;;;;;;
2023/07/06 00:29:56;;;;;;;4.8;3.5;;;;;;;;;;;;;
2023/07/06 00:32:26;;;;;;;4;3.2;;;;;;;;;;;;;
2023/07/06 00:34:35;;;;;;;4.2;3.1;;;;;;;;;;;;;
2023/07/06 00:37:02;;;;;;;3.5;3;;;;;;;;;;;;;
2023/07/06 00:39:26;;;;;;;4;3;;;;;;;;;;;;;
2023/07/06 00:41:52;;;;;;;4.1;3.1;;;;;;;;;;;;;
2023/07/06 00:44:18;;;;;;;4;3.1;;;;;;;;;;;;;
2023/07/06 00:46:44;;;;;;;3.8;2.9;;;;;;;;;;;;;
2023/07/06 00:49:09;;;;;;;4.1;3.3;;;;;;;;;;;;;
2023/07/06 00:51:34;;;;;;;3.3;2.7;;;;;;;;;;;;;
2023/07/06 00:54:01;;;;;;;4.4;3.1;;;;;;;;;;;;;
2023/07/06 00:56:25;;;;;;;4.1;3.2;;;;;;;;;;;;;
2023/07/06 00:58:51;;;;;;;3.4;2.9;;;;;;;;;;;;;
2023/07/06 01:01:16;;;;;;;4.5;3.2;;;;;;;;;;;;;
2023/07/06 01:03:43;;;;;;;4.2;3.1;;;;;;;;;;;;;
2023/07/06 01:06:06;;;;;;;4.5;3.3;;;;;;;;;;;;;
2023/07/06 01:08:35;;;;;;;3.9;3.2;;;;;;;;;;;;;
2023/07/06 01:11:00;;;;;;;4.6;3.3;;;;;;;;;;;;;
2023/07/06 01:13:26;;;;;;;4.4;3.4;;;;;;;;;;;;;
2023/07/06 01:15:51;;;;;;;4.8;3.3;;;;;;;;;;;;;
2023/07/06 01:18:16;;;;;;;4.7;3.4;;;;;;;;;;;;;
2023/07/06 01:20:41;;;;;;;4.7;3.1;;;;;;;;;;;;;
2023/07/06 01:23:06;;;;;;;5;3.1;;;;;;;;;;;;;
2023/07/06 01:25:32;;;;;;;6.7;3.7;;;;;;;;;;;;;
2023/07/06 01:27:57;;;;;;;3.6;3;;;;;;;;;;;;;
2023/07/06 01:30:22;;;;;;;4.7;3.3;;;;;;;;;;;;;
2023/07/06 01:32:47;;;;;;;5.3;3.7;;;;;;;;;;;;;
2023/07/06 01:35:12;;;;;;;4.8;3.5;;;;;;;;;;;;;
2023/07/06 01:37:37;;;;;;;5.9;3.4;;;;;;;;;;;;;
2023/07/06 01:40:09;;;;;;;5.5;3.7;;;;;;;;;;;;;
2023/07/06 01:42:27;;;;;;;5.7;4.1;;;;;;;;;;;;;
2023/07/06 01:44:57;;;;;;;5;4;;;;;;;;;;;;;
2023/07/06 01:47:21;;;;;;;4.9;3.9;;;;;;;;;;;;;
2023/07/06 01:49:46;;;;;;;5.8;4.2;;;;;;;;;;;;;
2023/07/06 01:52:12;;;;;;;7;4.5;;;;;;;;;;;;;
2023/07/06 01:54:37;;;;;;;5.6;4;;;;;;;;;;;;;
2023/07/06 01:57:04;;;;;;;7;5.5;;;;;;;;;;;;;
2023/07/06 01:59:28;;;;;;;6.5;5.7;;;;;;;;;;;;;
2023/07/06 02:01:59;;;;;;;6;4.7;;;;;;;;;;;;;
2023/07/06 02:04:20;;;;;;;7.1;4.6;;;;;;;;;;;;;
2023/07/06 02:06:45;;;;;;;7.1;4.6;;;;;;;;;;;;;
2023/07/06 02:09:10;;;;;;;5.6;4.2;;;;;;;;;;;;;
2023/07/06 02:11:37;;;;;;;5;4.1;;;;;;;;;;;;;
2023/07/06 02:14:02;;;;;;;6;4;;;;;;;;;;;;;
2023/07/06 02:16:30;;;;;;;6.5;4.2;;;;;;;;;;;;;
2023/07/06 02:18:55;;;;;;;5.5;3.7;;;;;;;;;;;;;
2023/07/06 02:21:22;;;;;;;5.1;3.8;;;;;;;;;;;;;
2023/07/06 02:23:46;;;;;;;5.5;3.7;;;;;;;;;;;;;
2023/07/06 02:26:12;;;;;;;5.4;3.9;;;;;;;;;;;;;
2023/07/06 02:28:36;;;;;;;4.6;3.7;;;;;;;;;;;;;
2023/07/06 02:31:03;;;;;;;5.5;4.1;;;;;;;;;;;;;
2023/07/06 02:33:28;;;;;;;5.9;3.9;;;;;;;;;;;;;
2023/07/06 02:35:53;;;;;;;6.3;4.1;;;;;;;;;;;;;
2023/07/06 02:38:18;;;;;;;4.5;3.9;;;;;;;;;;;;;
2023/07/06 03:52:04;;;;;;;4.9;3.4;;;;;;;;;;;;;
2023/07/06 03:54:28;;;;;;;4.2;3.4;;;;;;;;;;;;;
2023/07/06 03:56:56;;;;;;;4.5;3.5;;;;;;;;;;;;;
2023/07/06 03:59:21;;;;;;;5.2;3.3;;;;;;;;;;;;;
2023/07/06 04:02:40;;;;;;;4.1;3;;;;;;;13.69;100;939.7022;;;;
2023/07/06 04:05:09;;;;;;;3.8;3.3;;;;;;;13.62;100;939.7486;;;;
2023/07/06 04:07:34;;;;;;;4;3.3;;;;;;;13.71;100;939.6525;;;;
2023/07/06 04:10:09;;;;;;;4.1;3.3;;;;;;;13.78;100;939.7678;;;;
2023/07/06 04:12:37;;;;;;;4;3;;;;;;;13.74;100;939.7886;;;;
2023/07/06 04:14:59;;;;;;;3.6;3;;;;;;;13.64;100;939.7894;;;;
2023/07/06 04:17:26;;;;;;;4.6;3.4;;;;;;;13.66;100;939.8086;;;;
2023/07/06 04:19:56;;;;;;;3.7;3.3;;;;;;;13.75;100;939.8246;;;;
2023/07/06 04:22:20;;;;;;;4.9;3.3;;;;;;;13.82;100;939.7928;;;;
2023/07/06 04:24:51;;;;;;;4.5;3.4;;;;;;;13.8;100;939.8206;;;;
2023/07/06 04:27:16;;;;;;;4.2;3.4;;;;;;;13.87;100;939.8032;;;;
2023/07/06 04:29:48;;;;;;;4.1;3.2;;;;;;;14;100;939.7919;;;;
2023/07/06 04:32:14;;;;;;;6;4.4;;;;;;;14.12;100;939.8095;;;;
2023/07/06 04:34:39;;;;;;;5.5;4.3;;;;;;;14.16;100;939.7798;;;;
2023/07/06 04:37:10;;;;;;;7.5;4.9;;;;;;;14.24;100;939.7584;;;;
2023/07/06 04:39:38;;;;;;;6.5;4.4;;;;;;;14.31;100;939.8031;;;;
2023/07/06 04:42:05;;;;;;;5.3;2.9;;;;;;;14.27;100;939.8215;;;;
2023/07/06 04:44:29;;;;;;;4;2.8;;;;;;;14.3;100;939.8552;;;;
2023/07/06 04:46:58;;;;;;;3.5;3.1;;;;;;;14.21;100;939.8463;;;;
2023/07/06 04:49:23;;;;;;;4.9;3;;;;;;;14.26;100;939.8625;;;;
2023/07/06 04:51:49;;;;;;;3.3;2.9;;;;;;;14.27;100;939.8672;;;;
2023/07/06 04:54:21;;;;;;;4;3;;;;;;;14.35;100;939.8702;;;;
2023/07/06 04:56:51;;;;;;;3.4;2.9;;;;;;;14.46;100;939.8666;;;;
2023/07/06 04:59:25;;;;;;;4.3;3.2;;;;;;;14.47;100;939.8312;;;;
2023/07/06 05:01:51;;;;;;;3.7;3;;;;;;;14.63;100;939.8622;;;;
2023/07/06 05:04:18;;;;;;;3.7;3;;;;;;;14.52;100;939.8127;;;;
2023/07/06 05:06:47;;;;;;;4.3;3.3;;;;;;;14.77;100;939.8352;;;;
2023/07/06 05:09:12;;;;;;;4.3;3.2;;;;;;;14.81;99.33594;939.8198;;;;
2023/07/06 05:11:38;;;;;;;3.8;3;;;;;;;14.83;99.75684;939.8257;;;;
2023/07/06 05:14:04;;;;;;;4;3.2;;;;;;;14.82;98.09277;939.7864;;;;
2023/07/06 05:16:36;;;;;;;3.7;3.1;;;;;;;14.94;97.99219;939.8333;;;;
2023/07/06 05:19:05;;;;;;;4.3;3.2;;;;;;;15;99.37695;939.824;;;;
2023/07/06 05:21:29;;;;;;;4.8;3.2;;;;;;;14.92;100;939.8605;;;;
2023/07/06 05:23:56;;;;;;;4.1;3;;;;;;;14.94;100;939.818;;;;
2023/07/06 05:26:21;;;;;;;3.7;2.9;;;;;;;15.04;99.46777;939.801;;;;
2023/07/06 05:28:52;;;;;;;3.8;2.7;;;;;;;15.16;98.5625;939.8139;;;;
2023/07/06 05:31:14;;;;;;;3.7;2.8;;;;;;;15.24;97.92285;939.7864;;;;
2023/07/06 05:33:46;;;;;;;3.9;2.6;;;;;;;15.28;94.75586;939.803;;;;
2023/07/06 05:36:11;;;;;;;3.3;2.6;;;;;;;15.03;96.40918;939.7553;;;;
2023/07/06 05:38:41;;;;;;;4;2.8;;;;;;;15.07;97.0625;939.7719;;;;
2023/07/06 05:41:14;;;;;;;3.9;2.6;;;;;;;15.2;96.87207;939.7415;;;;
2023/07/06 05:43:45;;;;;;;4.3;2.9;;;;;;;15.23;97.16797;939.8209;;;;
2023/07/06 05:46:11;;;;;;;4.1;3.1;;;;;;;15.32;96.61133;939.9063;;;;
2023/07/06 05:48:43;;;;;;;4;2.8;;;;;;;15.31;95.89355;939.8349;;;;
2023/07/06 05:51:12;;;;;;;4;3;;;;;;;15.26;95.86035;939.9163;;;;
2023/07/06 05:53:37;;;;;;;3.8;2.9;;;;;;;15.03;96.21289;939.9028;;;;
2023/07/06 05:56:08;;;;;;;4.2;3.2;;;;;;;15.02;95.74707;939.8981;;;;
2023/07/06 05:58:37;;;;;;;3.8;3;;;;;;;15.03;97.35449;939.8948;;;;
2023/07/06 06:01:02;;;;;;;4.6;3.1;;;;;;;15.2;98.00293;939.8786;;;;
2023/07/06 06:03:32;;;;;;;509;254.6;;;;;;;15.02;97.91602;939.9253;;;;
2023/07/06 06:06:04;;;;;;;144.4;63.1;;;;;;;15.03;97.65527;939.8972;;;;
2023/07/06 06:08:37;;;;;;;50.3;24.1;;;;;;;15.26;97.70703;939.9805;;;;
2023/07/06 06:11:02;;;;;;;10.8;6.2;;;;;;;15.33;97.9043;940.0114;;;;
2023/07/06 06:13:30;;;;;;;5.8;3.1;;;;;;;15.32;98.01953;940.0058;;;;
2023/07/06 06:15:58;;;;;;;4.2;2.7;;;;;;;15.37;98.16992;939.9261;;;;
2023/07/06 06:18:25;;;;;;;5;3.4;;;;;;;15.49;98.15039;939.8253;;;;
2023/07/06 06:20:50;;;;;;;5.2;3.1;;;;;;;15.34;98.32617;939.915;;;;
2023/07/06 06:23:16;;;;;;;3.1;2.6;;;;;;;15.26;98.04199;939.9211;;;;
2023/07/06 06:25:40;;;;;;;3.2;2.9;;;;;;;15.36;98.92969;939.9357;;;;
2023/07/06 06:28:10;;;;;;;4.8;2.9;;;;;;;15.45;98.95996;939.9114;;;;
2023/07/06 06:30:38;;;;;;;3.7;2.7;;;;;;;15.51;98.00391;940;;;;
2023/07/06 06:33:01;;;;;;;4.1;2.9;;;;;;;15.57;98.33984;940.0374;;;;
2023/07/06 06:35:32;;;;;;;4.5;3;;;;;;;15.53;97.48828;940.0287;;;;
2023/07/06 06:38:05;;;;;;;3.9;2.6;;;;;;;15.6;97.58594;940.0182;;;;
2023/07/06 06:40:30;;;;;;;4;3;;;;;;;15.9;97.53613;939.9883;;;;
2023/07/06 06:43:03;;;;;;;3.3;2.5;;;;;;;16.41;96.74805;939.8894;;;;
2023/07/06 06:45:34;;;;;;;5.5;2.6;;;;;;;16.66;94.47656;939.9612;;;;
2023/07/06 06:48:03;;;;;;;5.7;2.6;;;;;;;16.71;91.09375;939.9988;;;;
2023/07/06 06:50:29;;;;;;;4.2;3;;;;;;;16.8;91.10059;939.9888;;;;
2023/07/06 06:53:02;;;;;;;2.8;2.2;;;;;;;16.79;88.87305;939.9641;;;;
2023/07/06 06:55:27;;;;;;;3;2.5;;;;;;;16.61;89.32227;939.9744;;;;
2023/07/06 06:57:57;;;;;;;4.3;2.6;;;;;;;16.79;91.00781;939.9825;;;;
2023/07/06 07:00:28;;;;;;;3.4;3;;;;;;;16.87;91.05762;939.9852;;;;
2023/07/06 07:02:53;;;;;;;4.2;2.7;;;;;;;16.94;91.92773;939.9659;;;;
2023/07/06 07:05:25;;;;;;;3.2;2.3;;;;;;;16.98;89.81738;939.9556;;;;
2023/07/06 07:07:50;;;;;;;2.7;2.4;;;;;;;17.19;90.36914;939.9395;;;;
2023/07/06 07:10:14;;;;;;;3;2.5;;;;;;;17.37;90.8125;939.947;;;;
2023/07/06 07:12:42;;;;;;;3.4;2.5;;;;;;;17.37;90.02441;939.889;;;;
2023/07/06 07:15:07;;;;;;;3.3;2.5;;;;;;;17.35;89.39453;939.8451;;;;
2023/07/06 07:17:32;;;;;;;3;2.4;;;;;;;17.4;90.11035;939.755;;;;
2023/07/06 07:19:57;;;;;;;3.7;2.2;;;;;;;17.36;89.4541;939.8199;;;;
2023/07/06 07:22:23;;;;;;;3.3;2.3;;;;;;;17.41;88.06152;939.8506;;;;
2023/07/06 07:24:55;;;;;;;4.3;2.3;;;;;;;17.37;87.33301;939.8898;;;;
2023/07/06 07:27:25;;;;;;;3.3;2.5;;;;;;;17.47;86.77344;939.9113;;;;
2023/07/06 07:29:50;;;;;;;3;2.5;;;;;;;17.6;85.71875;939.8828;;;;
2023/07/06 07:32:20;;;;;;;2.6;2.1;;;;;;;17.73;83.36719;939.788;;;;
2023/07/06 07:34:45;;;;;;;3.7;2.7;;;;;;;17.84;82.5752;939.8364;;;;
2023/07/06 07:37:15;;;;;;;2.9;2.1;;;;;;;17.87;83.05469;939.7393;;;;
2023/07/06 07:39:48;;;;;;;2.9;2.3;;;;;;;18.02;84.89551;939.7562;;;;
2023/07/06 07:42:12;;;;;;;2.9;2.6;;;;;;;18.16;83.48145;939.7356;;;;
2023/07/06 07:44:41;;;;;;;4.9;2.7;;;;;;;18.27;82.44434;939.7388;;;;
2023/07/06 07:47:05;;;;;;;3.8;2.5;;;;;;;18.29;83.79688;939.7634;;;;
2023/07/06 07:49:35;;;;;;;3.2;2.3;;;;;;;18.27;84.14063;939.7001;;;;
2023/07/06 07:51:59;;;;;;;3.1;2.3;;;;;;;18.33;85.41016;939.7336;;;;
2023/07/06 07:54:28;;;;;;;3.6;2.2;;;;;;;18.35;83.05371;939.7203;;;;
2023/07/06 07:56:54;;;;;;;3.4;2.5;;;;;;;18.32;82.11914;939.7112;;;;
2023/07/06 07:59:20;;;;;;;3.5;2.4;;;;;;;18.62;83.15137;939.757;;;;
2023/07/06 08:01:47;;;;;;;3.2;2.2;;;;;;;18.84;82.56348;939.7865;;;;
2023/07/06 08:04:14;;;;;;;3.3;2.4;;;;;;;18.37;79.95508;939.7441;;;;
2023/07/06 08:06:38;;;;;;;3.7;2.1;;;;;;;18.62;79.23145;939.7352;;;;
2023/07/06 08:09:07;;;;;;;3.4;2.5;;;;;;;18.81;78.27637;939.7569;;;;
2023/07/06 08:11:31;;;;;;;3.5;2.7;;;;;;;18.83;79.1875;939.8181;;;;
2023/07/06 08:13:59;;;;;;;3.5;2.6;;;;;;;18.62;79.8252;939.7513;;;;
2023/07/06 08:16:24;;;;;;;4.7;2.7;;;;;;;18.27;80.06348;939.7516;;;;
2023/07/06 08:18:55;;;;;;;3.8;2.4;;;;;;;18.14;80.72559;939.7761;;;;
2023/07/06 08:21:19;;;;;;;3;2.5;;;;;;;18.06;80.30273;939.7735;;;;
2023/07/06 08:23:49;;;;;;;5.3;2.6;;;;;;;17.95;81.80371;939.8194;;;;
2023/07/06 08:26:17;;;;;;;3.3;2.3;;;;;;;17.91;83.64355;939.8225;;;;
2023/07/06 08:28:42;;;;;;;2.7;2.3;;;;;;;18.2;80.92188;939.7751;;;;
2023/07/06 08:31:12;;;;;;;4.1;2.3;;;;;;;18.34;80.25098;939.7302;;;;
2023/07/06 08:33:41;;;;;;;3.9;2.5;;;;;;;18.64;81.22266;939.7377;;;;
2023/07/06 08:36:06;;;;;;;3.5;2.5;;;;;;;18.7;80.36328;939.809;;;;
2023/07/06 08:38:37;;;;;;;3;2.5;;;;;;;18.76;79.70996;939.745;;;;
2023/07/06 08:41:03;;;;;;;3.8;2.3;;;;;;;18.89;79.40625;939.7225;;;;
2023/07/06 08:43:30;;;;;;;4.7;2.5;;;;;;;19.06;79.62402;939.7388;;;;
2023/07/06 08:45:56;;;;;;;2.6;2.3;;;;;;;19.42;78.15137;939.7686;;;;
2023/07/06 08:48:20;;;;;;;3.4;2.6;;;;;;;19.64;77.95605;939.7732;;;;
2023/07/06 08:50:51;;;;;;;3.4;2.7;;;;;;;19.73;77.72852;939.758;;;;
2023/07/06 08:53:14;;;;;;;2.9;2.2;;;;;;;20.8;72.24707;939.675;;;;
2023/07/06 08:55:39;;;;;;;7.6;2.4;;;;;;;21.36;71.42578;939.7443;;;;
2023/07/06 08:58:07;;;;;;;3.7;2.3;;;;;;;21.37;70.12988;939.731;;;;
2023/07/06 09:00:36;;;;;;;4;2.6;;;;;;;21.56;70.68555;939.6284;;;;
2023/07/06 09:03:04;;;;;;;4.1;2.7;;;;;;;20.91;70.1709;939.7178;;;;
2023/07/06 09:05:48;;;;;;;3.1;2.4;;;;;;;21.48;71.22266;939.6075;;;;
2023/07/06 09:08:13;;;;;;;2.8;2.2;;;;;;;22.16;70.125;939.6072;;;;
2023/07/06 09:10:41;;;;;;;3.3;2.3;;;;;;;22.03;68.08789;939.5999;;;;
2023/07/06 09:13:06;;;;;;;3;1.9;;;;;;;22.3;71.30762;939.5941;;;;
2023/07/06 09:15:32;;;;;;;4.3;2.3;;;;;;;22.59;70.59277;939.5508;;;;
2023/07/06 09:18:03;;;;;;;2.9;2;;;;;;;22.71;68.88379;939.5048;;;;
2023/07/06 09:20:35;;;;;;;3.8;2.2;;;;;;;22.48;66.62012;939.5322;;;;
2023/07/06 09:23:06;;;;;;;2.5;2.3;;;;;;;22.69;65.12598;939.5403;;;;
2023/07/06 09:25:33;;;;;;;3;2.2;;;;;;;23;61.84668;939.5161;;;;
2023/07/06 09:27:56;;;;;;;2.9;2.2;;;;;;;23.27;63.19922;939.5106;;;;
2023/07/06 09:30:29;;;;;;;2.6;2.1;;;;;;;23.53;62.23828;939.5457;;;;
2023/07/06 09:32:50;;;;;;;3.7;2.5;;;;;;;23.22;61.58301;939.5341;;;;
2023/07/06 09:35:16;;;;;;;3;2.3;;;;;;;22.67;64.68652;939.5226;;;;
2023/07/06 09:37:41;;;;;;;5.9;2.5;;;;;;;21.93;65.92773;939.4803;;;;
2023/07/06 09:40:14;;;;;;;3.7;2.2;;;;;;;21.9;67.23633;939.4716;;;;
2023/07/06 09:42:38;;;;;;;3.2;2.3;;;;;;;22.28;65.05273;939.4568;;;;
2023/07/06 09:45:06;;;;;;;2.7;2.4;;;;;;;22.33;64.66113;939.4938;;;;
2023/07/06 09:47:30;;;;;;;2.3;2;;;;;;;22.17;65.35449;939.4689;;;;
2023/07/06 09:49:55;;;;;;;2.7;2;;;;;;;22.58;64.25195;939.3777;;;;
2023/07/06 09:52:23;;;;;;;3.2;2.1;;;;;;;22.69;64.37402;939.3188;;;;
2023/07/06 09:54:49;;;;;;;2.7;2.1;;;;;;;22.83;62.16309;939.3649;;;;
2023/07/06 09:57:15;;;;;;;2.4;2.2;;;;;;;23.18;65.57324;939.3796;;;;
2023/07/06 09:59:38;;;;;;;3.5;2.2;;;;;;;22.82;63.41895;939.389;;;;
2023/07/06 10:02:09;;;;;;;2.8;2.1;;;;;;;22.83;57.06641;939.3965;;;;
2023/07/06 10:04:34;;;;;;;2.6;2.1;;;;;;;23.13;55.87207;939.3289;;;;
2023/07/06 10:07:01;;;;;;;2.2;1.8;;;;;;;23.37;51.23535;939.3688;;;;
2023/07/06 10:09:24;;;;;;;2.8;2;;;;;;;23.19;54.07031;939.3704;;;;
2023/07/06 10:11:53;;;;;;;2.6;1.9;;;;;;;23.24;58.14355;939.3672;;;;
2023/07/06 10:14:21;;;;;;;2.9;1.7;;;;;;;23.39;52.44824;939.3737;;;;
2023/07/06 10:16:52;;;;;;;3.1;2.1;;;;;;;23.16;56.86328;939.2838;;;;
2023/07/06 10:19:23;;;;;;;2.8;2;;;;;;;23.52;57.73145;939.3309;;;;
2023/07/06 10:21:48;;;;;;;3;2.1;;;;;;;23.61;57.09766;939.2315;;;;
2023/07/06 10:24:17;;;;;;;2.3;2;;;;;;;23.96;52.57422;939.2922;;;;
2023/07/06 10:26:42;;;;;;;3.2;1.9;;;;;;;23.7;52.11914;939.2316;;;;
2023/07/06 10:29:11;;;;;;;3.6;2.3;;;;;;;23.34;57.2627;939.2976;;;;
2023/07/06 10:31:36;;;;;;;3.1;2.3;;;;;;;23.79;57.20215;939.2198;;;;
2023/07/06 10:34:04;;;;;;;5.1;2;;;;;;;24.21;59.52832;939.2271;;;;
2023/07/06 10:36:36;;;;;;;3.2;2.2;;;;;;;24.37;58.05371;939.2103;;;;
2023/07/06 10:39:02;;;;;;;3;2.2;;;;;;;24.59;54.95898;939.1692;;;;
2023/07/06 10:41:34;;;;;;;2.9;2.1;;;;;;;24.43;59.99512;939.1526;;;;
2023/07/06 10:44:01;;;;;;;5.1;2.6;;;;;;;23.78;57.49512;939.1886;;;;
2023/07/06 10:46:23;;;;;;;3.3;2.2;;;;;;;23.67;57.41016;939.1802;;;;
2023/07/06 10:48:48;;;;;;;2.6;2.2;;;;;;;23.8;62.07617;939.1161;;;;
2023/07/06 10:51:17;;;;;;;2.9;2.2;;;;;;;23.73;59.32422;939.106;;;;
2023/07/06 10:53:45;;;;;;;4.5;2.3;;;;;;;23.54;59.59375;939.0422;;;;
2023/07/06 10:56:10;;;;;;;3.2;2.2;;;;;;;23.23;61.7959;939.0531;;;;
2023/07/06 10:58:35;;;;;;;3.1;2.4;;;;;;;23.41;60.64551;939.0681;;;;
2023/07/06 11:01:00;;;;;;;3.2;2.2;;;;;;;23.85;55.08008;938.9543;;;;
2023/07/06 11:03:27;;;;;;;3.1;2.5;;;;;;;24.07;55.71875;938.9796;;;;
2023/07/06 11:05:51;;;;;;;3.6;2.5;;;;;;;24.16;56.0127;939.0159;;;;
2023/07/06 11:08:16;;;;;;;2.9;2.4;;;;;;;24.22;50.36719;939.0181;;;;
2023/07/06 11:10:42;;;;;;;3.9;2.8;;;;;;;24.24;54.63281;939.0297;;;;
2023/07/06 11:13:09;;;;;;;4.3;2.9;;;;;;;24.47;51.63184;939.0009;;;;
2023/07/06 11:15:38;;;;;;;5.4;2.7;;;;;;;24.25;58.00293;939.0594;;;;
2023/07/06 11:18:05;;;;;;;3.5;2.8;;;;;;;23.93;55.44336;939.0826;;;;
2023/07/06 11:20:30;;;;;;;3.9;2.7;;;;;;;23.82;54.54688;939.1454;;;;
2023/07/06 11:22:57;;;;;;;3.4;2.8;;;;;;;23.81;55.27441;939.0515;;;;
2023/07/06 11:25:22;;;;;;;4.3;2.8;;;;;;;23.44;57.05078;938.9999;;;;
2023/07/06 11:27:53;;;;;;;4;2.9;;;;;;;23.24;57.00195;939.0839;;;;
2023/07/06 11:30:22;;;;;;;4;2.6;;;;;;;23.02;57.50195;939.0695;;;;
2023/07/06 11:32:48;;;;;;;3.2;2.6;;;;;;;23.29;60.03027;939.0938;;;;
2023/07/06 11:35:14;;;;;;;4.1;2.9;;;;;;;23.49;57.14063;938.9856;;;;
2023/07/06 11:37:42;;;;;;;3.9;3;;;;;;;23.83;56.91211;939.0226;;;;
2023/07/06 11:40:15;;;;;;;3.8;2.8;;;;;;;24.17;50.87891;939.0355;;;;
2023/07/06 11:42:49;;;;;;;4.3;3.1;;;;;;;24.63;51.58008;939.1833;;;;
2023/07/06 11:45:16;;;;;;;3.5;2.8;;;;;;;24.24;55.25781;939.1517;;;;
2023/07/06 11:47:46;;;;;;;4.6;2.8;;;;;;;24.44;50.12012;939.0725;;;;
2023/07/06 11:50:22;;;;;;;6.1;3.3;;;;;;;24.35;55.63574;939.1158;;;;
2023/07/06 11:52:46;;;;;;;4.1;3.1;;;;;;;24.32;52.46387;939.0967;;;;
2023/07/06 11:55:28;;;;;;;5.5;3.3;;;;;;;24.59;50.47949;939.1074;;;;
2023/07/06 11:57:45;;;;;;;5.8;3.1;;;;;;;24.76;49.56738;939.053;;;;
2023/07/06 12:00:14;;;;;;;4.2;3.1;;;;;;;24.96;51.44043;939.0927;;;;
2023/07/06 12:02:37;;;;;;;4.5;3.3;;;;;;;24.62;51.67285;939.0826;;;;
2023/07/06 12:05:06;;;;;;;3.5;2.8;;;;;;;24.24;51.68848;939.0582;;;;
2023/07/06 12:07:32;;;;;;;3.6;3;;;;;;;24.05;54.09277;939.0251;;;;
2023/07/06 12:09:56;;;;;;;4.8;2.9;;;;;;;23.59;56.64844;939.0438;;;;
2023/07/06 12:12:23;;;;;;;5;3.3;;;;;;;24.05;55.39746;939.0229;;;;
2023/07/06 12:14:48;;;;;;;5.6;3.2;;;;;;;23.88;62.05078;939.0377;;;;
2023/07/06 12:17:17;;;;;;;4.8;3.2;;;;;;;24.14;56.32813;938.9571;;;;
2023/07/06 12:19:47;;;;;;;4.7;3.2;;;;;;;24.21;59.64746;938.9436;;;;
2023/07/06 12:22:11;;;;;;;4.1;2.8;;;;;;;23.91;57.6875;938.9656;;;;
2023/07/06 12:24:39;;;;;;;4.2;2.9;;;;;;;24.04;55.70215;938.9233;;;;
2023/07/06 12:27:05;;;;;;;4.7;3.3;;;;;;;23.79;56.56738;938.9456;;;;
2023/07/06 12:29:32;;;;;;;5.1;3.4;;;;;;;23.98;58.99219;938.8845;;;;
2023/07/06 12:31:57;;;;;;;4.3;3.4;;;;;;;24.19;57.77148;938.8129;;;;
2023/07/06 12:34:22;;;;;;;5.3;3.2;;;;;;;24.23;60.6875;938.8265;;;;
2023/07/06 12:36:49;;;;;;;20.1;3.9;;;;;;;24.16;57.50879;938.7847;;;;
2023/07/06 12:39:16;;;;;;;4.5;3.3;;;;;;;24.35;55.71973;938.7803;;;;
2023/07/06 12:41:41;;;;;;;4;3.2;;;;;;;24.45;54.61035;938.762;;;;
2023/07/06 12:44:09;;;;;;;3.8;3.1;;;;;;;24.45;55.33008;938.7845;;;;
2023/07/06 12:46:34;;;;;;;4.9;3.3;;;;;;;24.08;55.27246;938.7678;;;;
2023/07/06 12:49:01;;;;;;;5.2;3.4;;;;;;;23.75;56.80859;938.7719;;;;
2023/07/06 12:51:25;;;;;;;6.4;3.2;;;;;;;23.6;56.61328;938.781;;;;
2023/07/06 12:53:54;;;;;;;4.1;3;;;;;;;23.22;59.70313;938.8223;;;;
2023/07/06 12:56:22;;;;;;;5.3;3.3;;;;;;;23.08;57.45215;938.7816;;;;
2023/07/06 12:58:47;;;;;;;3.5;2.8;;;;;;;22.87;57.89355;938.8947;;;;
2023/07/06 13:01:17;;;;;;;5.2;3;;;;;;;22.56;60.46973;939.0092;;;;
2023/07/06 13:03:42;;;;;;;5.2;3.2;;;;;;;22.24;65.75195;939.1797;;;;
2023/07/06 13:06:12;;;;;;;5.6;3.3;;;;;;;21.76;73.42285;939.2813;;;;
2023/07/06 13:08:41;;;;;;;5.9;3.5;;;;;;;21.54;75.36523;939.3461;;;;
2023/07/06 13:11:06;;;;;;;5.4;3.5;;;;;;;21.32;78.97852;939.3513;;;;
2023/07/06 13:13:31;;;;;;;4.8;3.6;;;;;;;21.2;75.39063;939.2714;;;;
2023/07/06 13:15:56;;;;;;;5.9;3.5;;;;;;;21.4;75.90332;939.2912;;;;
2023/07/06 13:18:22;;;;;;;5.3;3.5;;;;;;;21.66;76.94336;939.2399;;;;
2023/07/06 13:20:52;;;;;;;5.1;3.5;;;;;;;21.71;70.8623;939.1864;;;;
2023/07/06 13:23:18;;;;;;;4.8;3.5;;;;;;;22.03;74.08887;939.1238;;;;
2023/07/06 13:25:49;;;;;;;4.3;3.2;;;;;;;22.53;76.33105;939.0914;;;;
2023/07/06 13:28:11;;;;;;;4.5;3.4;;;;;;;22.75;76.19336;939.1503;;;;
2023/07/06 13:30:39;;;;;;;5.3;3.4;;;;;;;23.36;71.92383;939.097;;;;
2023/07/06 13:33:03;;;;;;;4.8;3.4;;;;;;;23.45;64.22656;939.1002;;;;
2023/07/06 13:35:33;;;;;;;4.1;3.4;;;;;;;23.81;69.9375;939.1247;;;;
2023/07/06 13:37:57;;;;;;;5;3.3;;;;;;;24.14;64.41895;939.0655;;;;
2023/07/06 13:40:25;;;;;;;4.3;2.9;;;;;;;24.46;61.77832;939.1155;;;;
2023/07/06 13:42:52;;;;;;;4.4;3;;;;;;;24.73;59.31543;939.13;;;;
2023/07/06 13:45:18;;;;;;;4.6;2.9;;;;;;;24.8;58.88867;939.1783;;;;
2023/07/06 13:47:47;;;;;;;3.8;2.9;;;;;;;24.73;55.69531;939.1511;;;;
2023/07/06 13:50:19;;;;;;;4.7;3.2;;;;;;;24.73;57.57031;939.1319;;;;
2023/07/06 13:52:44;;;;;;;4.4;3;;;;;;;24.67;60.15625;939.1883;;;;
2023/07/06 13:55:14;;;;;;;4.8;3.2;;;;;;;24.51;62.44434;939.2234;;;;
2023/07/06 13:57:41;;;;;;;4.2;3.1;;;;;;;24.39;60.36719;939.2288;;;;
2023/07/06 14:00:04;;;;;;;4.2;3.2;;;;;;;24.21;62.54492;939.1884;;;;
2023/07/06 14:02:29;;;;;;;3.4;2.9;;;;;;;23.68;64.77637;939.2374;;;;
2023/07/06 14:04:56;;;;;;;3.8;3.1;;;;;;;23.5;65.70215;939.347;;;;
2023/07/06 14:07:21;;;;;;;4.5;3.1;;;;;;;23.62;64.02637;939.2459;;;;
2023/07/06 14:09:51;;;;;;;4.2;3.2;;;;;;;23.59;65.51563;939.2251;;;;
2023/07/06 14:12:21;;;;;;;4.7;3.1;;;;;;;23.61;65.34375;939.1502;;;;
2023/07/06 14:14:41;;;;;;;4.6;3.6;;;;;;;23.36;67.42285;939.1359;;;;
2023/07/06 14:17:06;;;;;;;4.4;3.1;;;;;;;23.83;63.45605;939.1462;;;;
2023/07/06 14:19:35;;;;;;;5.3;3.3;;;;;;;24.02;61.31738;939.1359;;;;
2023/07/06 14:21:59;;;;;;;4.4;3;;;;;;;23.83;61.24316;939.1453;;;;
2023/07/06 14:24:28;;;;;;;4.1;3;;;;;;;23.74;60.19629;939.1992;;;;
2023/07/06 14:26:54;;;;;;;4.3;3;;;;;;;23.55;60.14648;939.2085;;;;
2023/07/06 14:29:21;;;;;;;4.8;3.1;;;;;;;23.05;62.72266;939.1548;;;;
2023/07/06 14:31:46;;;;;;;7.3;3.4;;;;;;;22.64;66.1748;939.1908;;;;
2023/07/06 14:34:13;;;;;;;4.5;3.2;;;;;;;22.46;67.0625;939.1497;;;;
2023/07/06 14:36:37;;;;;;;4;3.1;;;;;;;22.36;68.14941;939.2025;;;;
2023/07/06 14:39:09;;;;;;;4.8;3;;;;;;;22.16;68.44824;939.2429;;;;
2023/07/06 14:41:33;;;;;;;5;3.6;;;;;;;21.89;71.8623;939.2256;;;;
2023/07/06 14:44:03;;;;;;;4.8;3.4;;;;;;;21.52;74.0625;939.1256;;;;
2023/07/06 14:46:28;;;;;;;6.3;2.9;;;;;;;21.5;74.34082;939.1198;;;;
2023/07/06 14:48:55;;;;;;;4.5;3.1;;;;;;;21.46;76.99023;939.1375;;;;
2023/07/06 14:51:21;;;;;;;4.9;3.2;;;;;;;21.49;80.91699;939.1606;;;;
2023/07/06 14:53:48;;;;;;;4.6;3.1;;;;;;;21.62;81.83203;939.1589;;;;
2023/07/06 14:56:16;;;;;;;4;2.7;;;;;;;22.11;77.39844;939.183;;;;
2023/07/06 14:58:39;;;;;;;4.2;2.9;;;;;;;22.27;78.87891;939.1169;;;;
2023/07/06 15:01:07;;;;;;;4.4;3.2;;;;;;;22.27;75.02051;939.1218;;;;
2023/07/06 15:03:32;;;;;;;4.7;2.9;;;;;;;22.11;71.11328;939.1189;;;;
2023/07/06 15:05:59;;;;;;;3.9;2.6;;;;;;;22.06;64.58789;939.0963;;;;
2023/07/06 15:08:24;;;;;;;3.9;2.7;;;;;;;22.16;67.49902;939.088;;;;
2023/07/06 15:10:51;;;;;;;4.5;3;;;;;;;22.2;70.18945;939.0639;;;;
2023/07/06 15:13:16;;;;;;;4.9;3.1;;;;;;;22.3;68.30469;939.0801;;;;
2023/07/06 15:15:44;;;;;;;3.8;2.6;;;;;;;22.37;65.77051;939.0584;;;;
2023/07/06 15:18:09;;;;;;;4;2.8;;;;;;;22.49;61.65625;938.9971;;;;
2023/07/06 15:20:37;;;;;;;3.6;2.8;;;;;;;22.56;62.94727;939.0122;;;;
2023/07/06 15:23:02;;;;;;;4.6;2.8;;;;;;;22.47;63.16895;938.9791;;;;
2023/07/06 15:25:31;;;;;;;3.9;3;;;;;;;22.54;65.58398;938.9733;;;;
2023/07/06 15:27:56;;;;;;;3.4;2.7;;;;;;;22.58;69.52148;939.0538;;;;
2023/07/06 15:30:26;;;;;;;3.9;2.7;;;;;;;22.77;64.31641;938.9691;;;;
2023/07/06 15:32:50;;;;;;;5.5;2.9;;;;;;;22.77;61.18066;939.0025;;;;
2023/07/06 15:35:21;;;;;;;5.4;3.2;;;;;;;22.84;62.42285;939.0264;;;;
2023/07/06 15:37:46;;;;;;;3.7;3.2;;;;;;;23.07;60.05859;939.0224;;;;
2023/07/06 15:40:17;;;;;;;4.6;3.1;;;;;;;22.85;58.7373;938.9451;;;;
2023/07/06 15:42:50;;;;;;;4.1;2.9;;;;;;;22.88;62.55859;938.8862;;;;
2023/07/06 15:45:21;;;;;;;3.8;3;;;;;;;22.89;59.3291;938.912;;;;
2023/07/06 15:47:46;;;;;;;4.1;3.4;;;;;;;22.92;60.10938;938.9124;;;;
2023/07/06 15:50:17;;;;;;;4.4;3.2;;;;;;;22.9;60.7998;938.9869;;;;
2023/07/06 15:52:42;;;;;;;4.6;3.2;;;;;;;22.84;63.61914;938.9763;;;;
2023/07/06 15:55:15;;;;;;;3.6;3.2;;;;;;;22.64;67.73438;938.9945;;;;
2023/07/06 15:57:49;;;;;;;4.3;3.2;;;;;;;22.56;70.13965;938.9005;;;;
2023/07/06 16:00:17;;;;;;;4.9;3.5;;;;;;;22.69;69.01074;938.9374;;;;
2023/07/06 16:02:43;;;;;;;4.1;3;;;;;;;22.58;70.60156;938.9132;;;;
2023/07/06 16:05:08;;;;;;;4.5;3.5;;;;;;;22.53;69.9375;938.8582;;;;
2023/07/06 16:07:33;;;;;;;4.8;3.4;;;;;;;22.38;70.73438;938.9825;;;;
2023/07/06 16:09:58;;;;;;;5.5;3.9;;;;;;;22.13;69.67383;938.9984;;;;
2023/07/06 16:12:26;;;;;;;4.5;3.4;;;;;;;22.3;70.48633;938.9147;;;;
2023/07/06 16:14:51;;;;;;;4.5;3;;;;;;;22.27;69.68457;938.8719;;;;
2023/07/06 16:17:22;;;;;;;4.4;3.2;;;;;;;22.48;67.60547;938.8909;;;;
2023/07/06 16:19:51;;;;;;;6.3;3.8;;;;;;;22.25;66.375;938.9085;;;;
2023/07/06 16:22:16;;;;;;;5.3;3.1;;;;;;;22.31;65.39746;938.8091;;;;
2023/07/06 16:24:43;;;;;;;4.7;3;;;;;;;22.24;66.57324;938.933;;;;
2023/07/06 16:27:08;;;;;;;6.6;3.7;;;;;;;22.14;65.76074;938.9346;;;;
2023/07/06 16:29:37;;;;;;;4.3;3.2;;;;;;;22.05;68.99316;938.9604;;;;
2023/07/06 16:32:01;;;;;;;5.1;3.2;;;;;;;22.09;68.58984;938.981;;;;
2023/07/06 16:34:30;;;;;;;5.7;3.6;;;;;;;22.25;67.66504;938.9847;;;;